Jamie Marie — WDE7178 — position and weather

sailwx.info

Track history (hours):
 
Tides and Currents Weather Stations Pressure Air Temp Water Temp Dewpoint Dewpoint Depression Visibility Wind Speed Wind Dir Waves Ship Positions

Jamie Marie

Owner: Jamie Marie, Inc., Aberdeen, WA. More information available from US FCC via Universal Licensing System and Coast Guard Vessel Documentation Center.

Last reported at 2016-Sep-27 14:33 UTC. Time now 2016-Sep-27 15:36 UTC.
Position N 46°54' W 124°06'.

Length 30 m.

Type: Fishing. MMSI: 366425240.

Date/timePositionNaut miles runAvg speedWind from/ knotsBaromVisibWave heightAir tempDewpointWater temp
2016-Sep-27 14:33N 46°54' W 124°06'0 0.0
2016-Sep-27 13:33N 46°54' W 124°06'0 0.0
2016-Sep-27 10:33N 46°54' W 124°06'59 3.0
2016-Sep-26 15:17N 47°37' W 125°06'39 5.7
2016-Sep-26 08:33N 47°07' W 124°29'20 3.4
2016-Sep-26 02:33N 46°54' W 124°06'0 0.0
2016-Sep-26 01:33N 46°54' W 124°06'0 0.0
2016-Sep-26 00:33N 46°54' W 124°06'6 2.1
2016-Sep-25 21:34N 46°56' W 124°15'32 7.9
2016-Sep-25 17:33N 47°13' W 124°55'8 7.7
2016-Sep-25 16:33N 47°20' W 124°50'8 7.1
2016-Sep-25 15:27N 47°28' W 124°51'8 2.0
2016-Sep-25 11:16N 47°20' W 124°47'0 0.4
2016-Sep-25 10:17N 47°20' W 124°47'0 0.7
2016-Sep-25 09:33N 47°21' W 124°47'2 0.9
2016-Sep-25 07:33N 47°22' W 124°46'4 1.4
2016-Sep-25 04:34N 47°25' W 124°50'2 0.6
2016-Sep-25 00:18N 47°28' W 124°52'5 3.1
2016-Sep-24 22:33N 47°23' W 124°48'7 6.6
2016-Sep-24 21:33N 47°28' W 124°54'6 2.8
2016-Sep-24 19:27N 47°24' W 124°49'2 2.2
2016-Sep-24 18:32N 47°26' W 124°49'3 2.6
2016-Sep-24 17:33N 47°28' W 124°51'23 4.6
2016-Sep-24 12:33N 47°08' W 124°34'14 7.0
2016-Sep-24 10:33N 46°59' W 124°19'7 6.7
2016-Sep-24 09:31N 46°55' W 124°10'3 0.4
2016-Sep-24 03:32N 46°54' W 124°06'0 0.0
2016-Sep-24 02:33N 46°54' W 124°06'0 0.0
2016-Sep-24 01:33N 46°54' W 124°06'0 0.0
2016-Sep-24 00:33N 46°54' W 124°06'0 0.0
2016-Sep-23 19:21N 46°54' W 124°06'0 0.0
2016-Sep-23 17:33N 46°54' W 124°06'0 0.0
2016-Sep-23 16:33N 46°54' W 124°06'0 0.0
2016-Sep-23 15:23N 46°54' W 124°06'0 0.0
2016-Sep-23 13:33N 46°54' W 124°06'0 0.0
2016-Sep-23 09:33N 46°54' W 124°06'0 0.0
2016-Sep-23 06:30N 46°54' W 124°06'0 0.0
2016-Sep-23 03:25N 46°54' W 124°06'0 0.0
2016-Sep-22 23:33N 46°54' W 124°06'0 0.0
2016-Sep-22 20:19N 46°54' W 124°06'0 0.0
2016-Sep-22 12:33N 46°54' W 124°06'0 0.0
2016-Sep-22 04:33N 46°54' W 124°06'0 0.0
2016-Sep-22 03:33N 46°54' W 124°06'12 4.1
2016-Sep-22 00:34N 47°02' W 124°21'8 8.4
2016-Sep-21 23:33N 47°08' W 124°29'8 8.3
2016-Sep-21 22:34N 47°14' W 124°37'8 2.7
2016-Sep-21 19:32N 47°18' W 124°47'3 1.0
2016-Sep-21 16:33N 47°21' W 124°46'38 5.5
2016-Sep-21 09:33N 46°54' W 124°06'0 0.0
2016-Sep-21 08:33N 46°54' W 124°06'0 0.0
2016-Sep-21 05:33N 46°54' W 124°06'12 5.9
2016-Sep-21 03:33N 46°46' W 124°19'8 7.7
2016-Sep-21 02:33N 46°39' W 124°24'3 0.4
2016-Sep-20 17:33N 46°42' W 124°26'18 6.1
2016-Sep-20 14:33N 46°54' W 124°06'0 0.0
2016-Sep-20 13:33N 46°54' W 124°06'0 0.0
2016-Sep-20 10:33N 46°54' W 124°06'0 0.0
2016-Sep-20 08:33N 46°54' W 124°06'0 0.0
2016-Sep-20 07:33N 46°54' W 124°06'0 0.0
2016-Sep-20 06:33N 46°54' W 124°06'0 0.0
2016-Sep-20 02:33N 46°54' W 124°06'0 0.0
2016-Sep-19 23:33N 46°54' W 124°06'0 0.0
2016-Sep-19 19:33N 46°54' W 124°06'0 0.0
2016-Sep-19 18:33N 46°54' W 124°06'0 0.0
2016-Sep-19 16:33N 46°54' W 124°06'0 0.0
2016-Sep-19 14:33N 46°54' W 124°06'0 0.0
2016-Sep-19 13:33N 46°54' W 124°06'0 0.0
2016-Sep-19 12:33N 46°54' W 124°06'0 0.0
2016-Sep-19 11:33N 46°54' W 124°06'0 0.0
2016-Sep-19 09:33N 46°54' W 124°06'0 0.0
2016-Sep-19 07:33N 46°54' W 124°06'0 0.0
2016-Sep-19 06:33N 46°54' W 124°06'0 0.0
2016-Sep-19 03:33N 46°54' W 124°06'1 1.2
2016-Sep-19 02:27N 46°55' W 124°08'13 6.9
2016-Sep-19 00:33N 46°45' W 124°21'14 2.9
2016-Sep-18 19:34N 46°32' W 124°30'1 0.2
2016-Sep-18 15:33N 46°31' W 124°30'6 6.1
2016-Sep-18 14:33N 46°38' W 124°30'13 3.2
2016-Sep-18 10:33N 46°48' W 124°19'8 7.9
2016-Sep-18 09:34N 46°54' W 124°12'4 0.6
2016-Sep-18 02:33N 46°54' W 124°06'0 0.0
2016-Sep-18 01:33N 46°54' W 124°06'0 0.0
2016-Sep-18 00:17N 46°54' W 124°06'0 0.0
2016-Sep-17 22:33N 46°54' W 124°06'0 0.0
2016-Sep-17 21:33N 46°54' W 124°06'0 0.0
2016-Sep-17 20:33N 46°54' W 124°06'0 0.0
2016-Sep-17 19:11N 46°54' W 124°06'  
Track history (hours):
 
Tides and Currents Weather Stations Pressure Air Temp Water Temp Dewpoint Dewpoint Depression Visibility Wind Speed Wind Dir Waves Ship Positions

Jamie Marie

Owner: Jamie Marie, Inc., Aberdeen, WA. More information available from US FCC via Universal Licensing System and Coast Guard Vessel Documentation Center.

Last reported at 2016-Sep-27 14:33 UTC. Time now 2016-Sep-27 15:36 UTC.
Position N 46°54' W 124°06'.

Length 30 m.

Type: Fishing. MMSI: 366425240.

Date/timePositionNaut miles runAvg speedWind from/ knotsBaromVisibWave heightAir tempDewpointWater temp
2016-Sep-27 14:33N 46°54' W 124°06'0 0.0
2016-Sep-27 13:33N 46°54' W 124°06'0 0.0
2016-Sep-27 10:33N 46°54' W 124°06'59 3.0
2016-Sep-26 15:17N 47°37' W 125°06'39 5.7
2016-Sep-26 08:33N 47°07' W 124°29'20 3.4
2016-Sep-26 02:33N 46°54' W 124°06'0 0.0
2016-Sep-26 01:33N 46°54' W 124°06'0 0.0
2016-Sep-26 00:33N 46°54' W 124°06'6 2.1
2016-Sep-25 21:34N 46°56' W 124°15'32 7.9
2016-Sep-25 17:33N 47°13' W 124°55'8 7.7
2016-Sep-25 16:33N 47°20' W 124°50'8 7.1
2016-Sep-25 15:27N 47°28' W 124°51'8 2.0
2016-Sep-25 11:16N 47°20' W 124°47'0 0.4
2016-Sep-25 10:17N 47°20' W 124°47'0 0.7
2016-Sep-25 09:33N 47°21' W 124°47'2 0.9
2016-Sep-25 07:33N 47°22' W 124°46'4 1.4
2016-Sep-25 04:34N 47°25' W 124°50'2 0.6
2016-Sep-25 00:18N 47°28' W 124°52'5 3.1
2016-Sep-24 22:33N 47°23' W 124°48'7 6.6
2016-Sep-24 21:33N 47°28' W 124°54'6 2.8
2016-Sep-24 19:27N 47°24' W 124°49'2 2.2
2016-Sep-24 18:32N 47°26' W 124°49'3 2.6
2016-Sep-24 17:33N 47°28' W 124°51'23 4.6
2016-Sep-24 12:33N 47°08' W 124°34'14 7.0
2016-Sep-24 10:33N 46°59' W 124°19'7 6.7
2016-Sep-24 09:31N 46°55' W 124°10'3 0.4
2016-Sep-24 03:32N 46°54' W 124°06'0 0.0
2016-Sep-24 02:33N 46°54' W 124°06'0 0.0
2016-Sep-24 01:33N 46°54' W 124°06'0 0.0
2016-Sep-24 00:33N 46°54' W 124°06'0 0.0
2016-Sep-23 19:21N 46°54' W 124°06'0 0.0
2016-Sep-23 17:33N 46°54' W 124°06'0 0.0
2016-Sep-23 16:33N 46°54' W 124°06'0 0.0
2016-Sep-23 15:23N 46°54' W 124°06'0 0.0
2016-Sep-23 13:33N 46°54' W 124°06'0 0.0
2016-Sep-23 09:33N 46°54' W 124°06'0 0.0
2016-Sep-23 06:30N 46°54' W 124°06'0 0.0
2016-Sep-23 03:25N 46°54' W 124°06'0 0.0
2016-Sep-22 23:33N 46°54' W 124°06'0 0.0
2016-Sep-22 20:19N 46°54' W 124°06'0 0.0
2016-Sep-22 12:33N 46°54' W 124°06'0 0.0
2016-Sep-22 04:33N 46°54' W 124°06'0 0.0
2016-Sep-22 03:33N 46°54' W 124°06'12 4.1
2016-Sep-22 00:34N 47°02' W 124°21'8 8.4
2016-Sep-21 23:33N 47°08' W 124°29'8 8.3
2016-Sep-21 22:34N 47°14' W 124°37'8 2.7
2016-Sep-21 19:32N 47°18' W 124°47'3 1.0
2016-Sep-21 16:33N 47°21' W 124°46'38 5.5
2016-Sep-21 09:33N 46°54' W 124°06'0 0.0
2016-Sep-21 08:33N 46°54' W 124°06'0 0.0
2016-Sep-21 05:33N 46°54' W 124°06'12 5.9
2016-Sep-21 03:33N 46°46' W 124°19'8 7.7
2016-Sep-21 02:33N 46°39' W 124°24'3 0.4
2016-Sep-20 17:33N 46°42' W 124°26'18 6.1
2016-Sep-20 14:33N 46°54' W 124°06'0 0.0
2016-Sep-20 13:33N 46°54' W 124°06'0 0.0
2016-Sep-20 10:33N 46°54' W 124°06'0 0.0
2016-Sep-20 08:33N 46°54' W 124°06'0 0.0
2016-Sep-20 07:33N 46°54' W 124°06'0 0.0
2016-Sep-20 06:33N 46°54' W 124°06'0 0.0
2016-Sep-20 02:33N 46°54' W 124°06'0 0.0
2016-Sep-19 23:33N 46°54' W 124°06'0 0.0
2016-Sep-19 19:33N 46°54' W 124°06'0 0.0
2016-Sep-19 18:33N 46°54' W 124°06'0 0.0
2016-Sep-19 16:33N 46°54' W 124°06'0 0.0
2016-Sep-19 14:33N 46°54' W 124°06'0 0.0
2016-Sep-19 13:33N 46°54' W 124°06'0 0.0
2016-Sep-19 12:33N 46°54' W 124°06'0 0.0
2016-Sep-19 11:33N 46°54' W 124°06'0 0.0
2016-Sep-19 09:33N 46°54' W 124°06'0 0.0
2016-Sep-19 07:33N 46°54' W 124°06'0 0.0
2016-Sep-19 06:33N 46°54' W 124°06'0 0.0
2016-Sep-19 03:33N 46°54' W 124°06'1 1.2
2016-Sep-19 02:27N 46°55' W 124°08'13 6.9
2016-Sep-19 00:33N 46°45' W 124°21'14 2.9
2016-Sep-18 19:34N 46°32' W 124°30'1 0.2
2016-Sep-18 15:33N 46°31' W 124°30'6 6.1
2016-Sep-18 14:33N 46°38' W 124°30'13 3.2
2016-Sep-18 10:33N 46°48' W 124°19'8 7.9
2016-Sep-18 09:34N 46°54' W 124°12'4 0.6
2016-Sep-18 02:33N 46°54' W 124°06'0 0.0
2016-Sep-18 01:33N 46°54' W 124°06'0 0.0
2016-Sep-18 00:17N 46°54' W 124°06'0 0.0
2016-Sep-17 22:33N 46°54' W 124°06'0 0.0
2016-Sep-17 21:33N 46°54' W 124°06'0 0.0
2016-Sep-17 20:33N 46°54' W 124°06'0 0.0
2016-Sep-17 19:11N 46°54' W 124°06'  

Dump ship's entire track history